Terminal Aerodrome Forecast
Issued by NWS Blacksburg, VA

Home | Current Version | Previous Version | Text Only | Print | Product List | Glossary On
Versions: 1 2 3 4 5 6 7 8 9 10 11 12 13 14 15 16 17 18 19 20 21 22 23
000
FTUS41 KRNK 191721
TAFDAN
TAF
KDAN 191721Z 1918/2018 34007KT P6SM SKC
     FM200900 06004KT P6SM SCT040 OVC100
     FM201200 04003KT P6SM -SN OVC040
     FM201500 00000KT 5SM -SN OVC025=

USA.gov is the U.S. government's official web portal to all federal, state and local government web resources and services.